• Join FlightAware (Why Join?)
  • Login
  • US Flag 
03:07PM EST


 

Airport Tracker/Info


-or-


 

Live Flight TrackerFlight Track Log ✈ SWA1688 ✈ 24-May-2013 ✈ KMCO - KALB

Flight Track Log - Related Links

Times and Time Zones

All times are in EDT time to prevent confusion due to time zone crossing. See the SWA1688 flight status page for this flight to view local times or setup timezone preferences in your user account.

Time Position Orientation Groundspeed Altitude Reporting Facility
EDT Latitude Longitude Course Direction KTS MPH feet Rate Location/Type
09:49PM 28.4333 -81.3000 24° Northeast 164 189 500  Level Orlando TRACON
09:50PM 28.4667 -81.2833 24° Northeast 192 221 1,900 2,640 Climbing Orlando TRACON
09:51PM 28.5167 -81.2667 16° North 222 255 4,500 3,000 Climbing Orlando TRACON
09:52PM 28.5833 -81.2667 360° North 273 314 7,400 3,000 Climbing Orlando TRACON
09:52PM 28.6428 -81.2769 351° North 274 315 9,800 2,580 Climbing Jacksonville Center
09:53PM 28.7203 -81.2969 347° North 299 344 12,000 2,520 Climbing Jacksonville Center
09:54PM 28.8164 -81.3239 346° North 319 367 14,900 2,760 Climbing Jacksonville Center
09:55PM 28.9189 -81.3436 350° North 352 405 17,600 2,700 Climbing Jacksonville Center
09:56PM 29.0258 -81.3728 347° North 374 430 20,300 2,460 Climbing Jacksonville Center
09:57PM 29.1347 -81.3950 350° North 385 443 22,600 2,280 Climbing Jacksonville Center
09:58PM 29.2494 -81.4050 356° North 397 457 24,900 2,160 Climbing Jacksonville Center
09:59PM 29.3667 -81.4153 356° North 409 471 27,000 2,040 Climbing Jacksonville Center
10:00PM 29.4794 -81.4278 354° North 409 471 29,000 1,620 Climbing Jacksonville Center
10:01PM 29.5986 -81.4403 355° North 409 471 30,300 1,320 Climbing Jacksonville Center
10:02PM 29.7219 -81.4506 356° North 423 487 31,700 1,320 Climbing Jacksonville Center
10:03PM 29.8431 -81.4631 355° North 430 495 33,000 600 Climbing Jacksonville Center
10:04PM 29.9600 -81.4733 356° North 425 489 33,000  Level Jacksonville Center
10:05PM 30.0772 -81.4836 356° North 425 489 33,000  Level Jacksonville Center
10:06PM 30.1942 -81.4986 354° North 425 489 33,000 180 Level Jacksonville Center
10:07PM 30.3008 -81.5067 356° North 425 489 33,400 960 Climbing Jacksonville Center
10:08PM 30.4217 -81.5025 North 425 489 35,000 780 Climbing Jacksonville Center
10:09PM 30.5364 -81.4936 North 419 482 35,000  Level Jacksonville Center
10:10PM 30.6556 -81.4872 North 419 482 35,000  Level Jacksonville Center
10:11PM 30.7722 -81.4758 North 419 482 35,000  Level Jacksonville Center
10:12PM 30.8869 -81.4667 North 419 482 35,000  Level Jacksonville Center
10:13PM 30.9997 -81.4578 North 419 482 35,000  Level Jacksonville Center
10:14PM 31.1142 -81.4414 North 419 482 35,000  Level Jacksonville Center
10:15PM 31.2264 -81.3864 23° Northeast 419 482 35,000  Level Jacksonville Center
10:16PM 31.3467 -81.3139 27° Northeast 425 489 35,000  Level Jacksonville Center
10:17PM 31.4544 -81.2536 26° Northeast 439 505 35,000  Level Jacksonville Center
10:18PM 31.5561 -81.2006 24° Northeast 439 505 35,000  Level Jacksonville Center
10:19PM 31.6761 -81.1325 26° Northeast 434 499 35,000  Level Jacksonville Center
10:20PM 31.7778 -81.0767 25° Northeast 440 506 35,000  Level Jacksonville Center
10:21PM 31.8978 -81.0083 26° Northeast 440 506 35,000  Level Jacksonville Center
10:22PM 32.0075 -80.9447 26° Northeast 441 507 35,000  Level Jacksonville Center
10:23PM 32.1089 -80.8936 23° Northeast 441 507 35,000  Level Jacksonville Center
10:24PM 32.2311 -80.8247 25° Northeast 435 501 35,000  Level Jacksonville Center
10:25PM 32.3303 -80.7683 26° Northeast 435 501 35,000  Level Jacksonville Center
10:26PM 32.4522 -80.6967 26° Northeast 440 506 35,000  Level Jacksonville Center
10:27PM 32.5639 -80.6322 26° Northeast 440 506 35,000  Level Jacksonville Center
10:28PM 32.6756 -80.5678 26° Northeast 440 506 35,000  Level Jacksonville Center
10:29PM 32.7869 -80.5056 25° Northeast 440 506 35,000  Level Jacksonville Center
10:30PM 32.8964 -80.4408 26° Northeast 440 506 35,000  Level Jacksonville Center
10:31PM 32.9997 -80.3836 25° Northeast 440 506 35,000  Level Jacksonville Center
10:32PM 33.1111 -80.3183 26° Northeast 440 506 35,000  Level Jacksonville Center
10:33PM 33.2369 -80.2503 24° Northeast 440 506 35,000  Level Jacksonville Center
10:34PM 33.3442 -80.1850 27° Northeast 440 506 35,000  Level Jacksonville Center
10:35PM 33.4389 -80.1272 27° Northeast 435 501 35,000  Level Jacksonville Center
10:36PM 33.5481 -80.0639 26° Northeast 435 501 35,000  Level Jacksonville Center
10:37PM 33.6592 -79.9981 26° Northeast 435 501 35,000  Level Jacksonville Center
10:38PM 33.7683 -79.9344 26° Northeast 435 501 35,000  Level Jacksonville Center
10:39PM 33.8794 -79.8708 25° Northeast 435 501 35,000  Level Jacksonville Center
10:40PM 33.9883 -79.8019 28° Northeast 440 506 35,000  Level Jacksonville Center
10:42PM 34.2236 -79.6631 26° Northeast 419 482 35,000  Level Washington Center
10:43PM 34.3383 -79.6033 23° Northeast 432 497 35,000  Level Washington Center
10:44PM 34.4339 -79.5528 24° Northeast 427 491 35,000  Level Washington Center
10:45PM 34.5419 -79.4975 23° Northeast 422 486 35,000  Level Washington Center
10:46PM 34.6483 -79.4369 25° Northeast 422 486 35,000  Level Washington Center
10:47PM 34.7564 -79.3814 23° Northeast 417 480 35,000  Level Washington Center
10:48PM 34.8647 -79.3256 23° Northeast 417 480 35,000  Level Washington Center
10:49PM 34.9728 -79.2697 23° Northeast 417 480 35,000  Level Washington Center
10:50PM 35.0753 -79.1983 30° Northeast 417 480 35,000  Level Washington Center
10:51PM 35.1778 -79.1139 34° Northeast 428 493 35,000  Level Washington Center
10:52PM 35.2761 -79.0317 34° Northeast 433 498 35,000  Level Washington Center
10:53PM 35.3789 -78.9469 34° Northeast 433 498 35,000  Level Washington Center
10:54PM 35.4811 -78.8647 33° Northeast 433 498 35,000  Level Washington Center
10:55PM 35.5858 -78.7794 34° Northeast 433 498 35,000  Level Washington Center
10:56PM 35.6883 -78.6917 35° Northeast 438 504 35,000  Level Washington Center
10:57PM 35.7928 -78.6033 34° Northeast 443 510 35,000  Level Washington Center
10:58PM 35.8972 -78.5150 34° Northeast 443 510 35,000  Level Washington Center
10:59PM 35.9972 -78.4289 35° Northeast 448 516 35,000  Level Washington Center
11:00PM 36.1036 -78.3403 34° Northeast 448 516 35,000  Level Washington Center
11:01PM 36.2100 -78.2511 34° Northeast 448 516 35,000  Level Washington Center
11:02PM 36.3164 -78.1594 35° Northeast 453 521 35,000  Level Washington Center
11:03PM 36.4311 -78.0650 34° Northeast 453 521 35,000  Level Washington Center
11:04PM 36.5267 -77.9778 36° Northeast 459 528 35,000  Level Washington Center
11:05PM 36.6306 -77.8878 35° Northeast 459 528 35,000 60 Level Washington Center
11:06PM 36.7386 -77.7975 34° Northeast 459 528 35,200 780 Climbing Washington Center
11:07PM 36.8428 -77.7044 36° Northeast 459 528 36,600 840 Climbing Washington Center
11:08PM 36.9486 -77.6139 34° Northeast 459 528 37,000 180 Climbing Washington Center
11:09PM 37.0564 -77.5203 35° Northeast 459 528 37,000  Level Washington Center
11:10PM 37.1600 -77.4292 35° Northeast 459 528 37,000  Level Washington Center
11:11PM 37.2678 -77.3353 35° Northeast 459 528 37,000  Level Washington Center
11:12PM 37.3736 -77.2436 35° Northeast 459 528 37,000  Level Washington Center
11:13PM 37.4792 -77.1464 36° Northeast 464 534 37,000  Level Washington Center
11:14PM 37.5867 -77.0542 34° Northeast 469 540 37,000 300 Level Washington Center
11:15PM 37.6942 -76.9592 35° Northeast 463 533 37,700 600 Climbing Washington Center
11:16PM 37.7994 -76.8611 36° Northeast 463 533 38,300 600 Climbing Washington Center
11:17PM 37.9089 -76.7683 34° Northeast 463 533 39,000 300 Climbing Washington Center
11:18PM 38.0183 -76.6672 36° Northeast 469 540 39,000  Level Washington Center
11:19PM 38.1256 -76.5683 36° Northeast 475 547 39,000  Level Washington Center
11:20PM 38.2347 -76.4719 35° Northeast 475 547 39,000  Level Washington Center
11:21PM 38.3542 -76.3647 35° Northeast 475 547 39,000  Level Washington Center
11:22PM 38.4633 -76.2653 35° Northeast 475 547 39,000  Level Washington Center
11:23PM 38.5722 -76.1653 36° Northeast 475 547 39,000  Level Washington Center
11:24PM 38.6767 -76.0731 35° Northeast 491 565 39,000  Level Washington Center
11:25PM 38.7833 -75.9725 36° Northeast 491 565 39,000  Level Washington Center
11:26PM 38.8942 -75.8717 35° Northeast 486 559 39,000  Level Washington Center
11:27PM 39.0028 -75.7706 36° Northeast 481 554 39,000  Level Washington Center
11:28PM 39.1114 -75.6664 37° Northeast 481 554 39,000  Level Washington Center
11:29PM 39.2197 -75.5703 34° Northeast 475 547 39,000  Level Washington Center
11:30PM 39.3258 -75.4681 37° Northeast 475 547 39,000  Level Washington Center
11:31PM 39.4300 -75.3658 37° Northeast 475 547 39,000  Level Washington Center
11:32PM 39.5317 -75.2553 40° Northeast 475 547 39,000  Level Washington Center
11:34PM 39.7433 -75.0150 41° Northeast 488 562 39,000  Level New York Center
11:35PM 39.8453 -74.9050 40° Northeast 482 555 39,000  Level New York Center
11:36PM 39.9511 -74.7919 39° Northeast 474 545 39,000  Level New York Center
11:37PM 40.0550 -74.6786 40° Northeast 479 551 39,000  Level New York Center
11:38PM 40.1569 -74.5594 42° Northeast 479 551 39,000  Level New York Center
11:39PM 40.2586 -74.4400 42° Northeast 479 551 39,000 -540 Level New York Center
11:40PM 40.3644 -74.3258 39° Northeast 479 551 38,000 -1,020 Descending New York Center
11:41PM 40.4892 -74.2667 20° North 471 542 37,000 -960 Descending New York Center
11:42PM 40.6275 -74.2383 North 471 542 36,100 -900 Descending New York Center
11:43PM 40.7678 -74.2069 10° North 484 557 35,200 -1,380 Descending New York Center
11:46PM 41.0767 -74.1472 North 527 606 31,800 -2,160 Descending Boston Center
11:47PM 41.2250 -74.1125 10° North 534 615 28,400 -2,940 Descending Boston Center
11:48PM 41.3839 -74.0753 10° North 534 615 26,000 -1,200 Descending Boston Center
11:49PM 41.5178 -74.0481 North 512 589 26,000 -1,440 Level Boston Center
11:50PM 41.6433 -74.0208 North 497 572 23,200 -2,580 Descending Boston Center
11:51PM 41.7750 -73.9933 North 490 564 21,000 -2,580 Descending Boston Center
11:51PM 41.9003 -73.9686 North 461 531 18,300 -3,000 Descending Boston Center
11:52PM 41.9378 -73.9639 North 454 522 17,400 -2,460 Descending Boston Center
11:53PM 42.0217 -73.9408 12° North 448 516 15,600 -1,200 Descending Boston Center
11:54PM 42.1239 -73.9181 North 438 504 15,300 -60 Descending Boston Center
11:55PM 42.2389 -73.8928 North 365 420 15,500 -1,200 Climbing Boston Center
11:56PM 42.3142 -73.8692 13° North 310 357 13,000 -2,880 Descending Boston Center
11:56PM 42.3394 -73.8642 North 290 334 11,900 -3,540 Descending Boston Center
11:57PM 42.4000 -73.8431 14° North 291 335 9,500 -3,000 Descending Boston Center
11:57PM 42.4189 -73.8406 North 289 333 8,900 -2,940 Descending Boston Center
11:58PM 42.4900 -73.8197 12° North 235 270 5,800 -2,640 Descending Boston Center
11:59PM 42.5297 -73.8036 17° North 230 265 4,300 -2,220 Descending Boston Center
11:59PM 42.5422 -73.8011 North 181 208 3,600 -1,320 Descending Boston Center
12:00AM 42.5714 -73.7989 North 185 213 3,000 -600 Descending Boston Center
12:00AM 42.5861 -73.7994 358° North 132 152 3,000  Level Boston Center
12:01AM 42.6069 -73.8025 354° North 142 163 3,000 -300 Level Boston Center
12:01AM 42.6194 -73.8000 North 112 129 2,700 -540 Descending Boston Center
12:02AM 42.6464 -73.8033 355° North 126 145 2,500 -720 Descending Boston Center
12:02AM 42.6528 -73.8036 358° North 116 133 2,000 17,460 Descending Boston Center
12:03AM 42.6819 -73.8042 359° North 126 145 20,000 -600 Climbing Boston Center
12:03AM 42.6839 -73.8042 360° North 121 139 1,400  Descending Boston Center
12:04AM 42.7194 -73.8050 359° North 126 145 20,000 -720 Climbing Boston Center
12:04AM 42.7194 -73.8078 270° West 118 136 700  Descending Boston Center
12:05AM 42.7547 -73.8058 North 126 145 20,000 11,460 Climbing Boston Center
12:06AM 42.7839 -73.8064 359° North 126 145 20,000  Level Boston Center
12:08AM 42.7491 -73.8020 10° North  Level Estimated